Time;durP1;ratioP1;P1;durP2;ratioP2;P2;SDS_P1;SDS_P2;PMS_P1;PMS_P2;Temp;Humidity;BMP_temperature;BMP_pressure;BME280_temperature;BME280_humidity;BME280_pressure;Samples;Min_cycle;Max_cycle;Signal;HPM_P1;HPM_P2
2023/03/28 00:01:46;;;;;;;13.88;2.88;;;2.40;99.90;;;;;;5007853;28;20973;-77
2023/03/28 00:04:12;;;;;;;18.58;4.18;;;2.50;99.90;;;;;;5003255;28;20431;-77
2023/03/28 00:06:38;;;;;;;18.25;3.05;;;2.40;99.90;;;;;;5006146;28;20432;-76
2023/03/28 00:09:04;;;;;;;19.67;3.70;;;2.40;99.90;;;;;;5003606;28;20976;-76
2023/03/28 00:11:30;;;;;;;20.10;4.47;;;2.40;99.90;;;;;;4994246;28;20421;-77
2023/03/28 00:14:01;;;;;;;15.50;3.85;;;2.40;99.90;;;;;;5005203;28;20856;-78
2023/03/28 00:16:31;;;;;;;14.85;3.63;;;2.40;99.90;;;;;;4989066;28;20430;-76
2023/03/28 00:18:59;;;;;;;14.40;2.38;;;2.50;99.90;;;;;;5002883;28;20897;-77
2023/03/28 00:21:33;;;;;;;15.90;3.40;;;2.50;99.90;;;;;;5006130;28;20503;-76
2023/03/28 00:24:01;;;;;;;15.32;3.10;;;2.50;99.90;;;;;;5006209;28;20949;-77
2023/03/28 00:26:31;;;;;;;16.58;3.30;;;2.50;99.90;;;;;;5006053;28;20566;-77
2023/03/28 00:28:57;;;;;;;16.75;2.80;;;2.40;99.90;;;;;;5002746;28;20431;-77
2023/03/28 00:31:24;;;;;;;15.48;3.42;;;2.50;99.90;;;;;;5003919;28;20435;-77
2023/03/28 00:33:50;;;;;;;16.70;3.78;;;2.50;99.90;;;;;;5005490;28;20599;-76
2023/03/28 00:36:21;;;;;;;13.07;2.53;;;2.40;99.90;;;;;;4990298;28;20951;-77
2023/03/28 00:38:48;;;;;;;10.93;2.97;;;2.50;99.90;;;;;;5003074;28;20564;-76
2023/03/28 00:41:17;;;;;;;18.17;3.42;;;2.50;99.90;;;;;;5007070;28;20412;-75
2023/03/28 00:43:45;;;;;;;16.40;3.78;;;2.50;99.90;;;;;;5006860;28;20434;-77
2023/03/28 00:46:34;;;;;;;17.03;3.90;;;2.50;99.90;;;;;;5006356;28;20436;-76
2023/03/28 00:49:21;;;;;;;16.42;3.63;;;2.50;99.90;;;;;;5023674;28;20512;-77
2023/03/28 00:51:55;;;;;;;17.25;3.63;;;2.40;99.90;;;;;;5006626;28;20444;-76
2023/03/28 00:54:22;;;;;;;14.40;3.15;;;2.30;99.90;;;;;;5006383;28;20474;-78
2023/03/28 00:56:52;;;;;;;16.30;3.10;;;2.30;99.90;;;;;;5006228;28;20511;-76
2023/03/28 00:59:22;;;;;;;19.20;3.90;;;2.30;99.90;;;;;;5003910;28;20437;-78
2023/03/28 01:01:48;;;;;;;17.70;3.55;;;2.30;99.90;;;;;;5006942;28;20412;-78
2023/03/28 01:04:19;;;;;;;13.20;2.27;;;2.20;99.90;;;;;;5004791;28;20764;-77
2023/03/28 01:06:47;;;;;;;13.57;2.10;;;2.20;99.90;;;;;;5009139;28;20848;-76
2023/03/28 01:09:15;;;;;;;14.18;2.50;;;2.10;99.90;;;;;;5006107;28;20503;-77
2023/03/28 01:11:43;;;;;;;23.10;3.72;;;2.00;99.90;;;;;;4994613;28;20421;-76
2023/03/28 01:14:12;;;;;;;15.23;2.67;;;2.10;99.90;;;;;;5049059;22;20429;-68
2023/03/28 01:16:40;;;;;;;17.15;2.47;;;2.10;99.90;;;;;;5005628;28;20472;-70
2023/03/28 01:19:20;;;;;;;13.95;3.25;;;2.00;99.90;;;;;;5005989;28;20521;-68
2023/03/28 01:21:59;;;;;;;15.07;2.53;;;2.10;99.90;;;;;;4989289;28;20426;-68
2023/03/28 01:24:40;;;;;;;19.58;3.22;;;1.90;99.90;;;;;;5003174;28;20516;-68
2023/03/28 01:27:20;;;;;;;14.77;2.58;;;2.00;99.90;;;;;;5009904;28;20507;-69
2023/03/28 01:29:59;;;;;;;14.25;3.05;;;1.90;99.90;;;;;;5010512;28;20440;-68
2023/03/28 01:32:46;;;;;;;13.18;2.50;;;1.90;99.90;;;;;;5010948;28;20417;-69
2023/03/28 01:35:25;;;;;;;17.60;3.92;;;1.90;99.90;;;;;;4981838;28;20430;-69
2023/03/28 01:38:26;;;;;;;15.25;2.85;;;1.90;99.90;;;;;;5003414;28;20441;-68
2023/03/28 01:41:11;;;;;;;9.73;2.30;;;1.80;99.90;;;;;;5006408;28;20759;-68
2023/03/28 01:43:52;;;;;;;10.23;1.95;;;1.80;99.90;;;;;;5008453;28;20459;-68
2023/03/28 01:46:20;;;;;;;15.15;3.65;;;1.80;99.90;;;;;;4991137;28;20499;-69
2023/03/28 01:49:05;;;;;;;14.00;2.42;;;1.70;99.90;;;;;;4995764;28;20418;-68
2023/03/28 01:51:53;;;;;;;14.55;2.92;;;1.70;99.90;;;;;;4995003;28;20808;-68
2023/03/28 01:54:48;;;;;;;11.90;3.63;;;1.70;99.90;;;;;;5007259;28;20559;-69
2023/03/28 01:57:43;;;;;;;15.73;2.63;;;1.60;99.90;;;;;;4990813;28;20508;-68
2023/03/28 02:00:28;;;;;;;12.52;2.90;;;1.70;99.90;;;;;;4998392;28;20440;-69
2023/03/28 02:03:03;;;;;;;10.48;2.45;;;1.50;99.90;;;;;;5003731;28;20425;-69
2023/03/28 02:05:31;;;;;;;13.48;3.15;;;1.70;99.90;;;;;;4993317;28;20955;-68
2023/03/28 02:07:59;;;;;;;17.67;2.60;;;1.60;99.90;;;;;;4989614;28;20474;-69
2023/03/28 02:10:26;;;;;;;13.88;2.40;;;1.60;99.90;;;;;;4994662;28;20440;-69
2023/03/28 02:13:02;;;;;;;11.57;3.22;;;1.50;99.90;;;;;;4998327;28;20435;-68
2023/03/28 02:15:29;;;;;;;13.45;2.35;;;1.60;99.90;;;;;;5006595;28;20517;-68
2023/03/28 02:18:01;;;;;;;17.00;3.83;;;1.50;99.90;;;;;;4996012;28;20427;-69
2023/03/28 02:20:30;;;;;;;11.05;2.60;;;1.40;99.90;;;;;;4990948;28;20429;-68
2023/03/28 02:23:10;;;;;;;16.53;3.47;;;1.50;99.90;;;;;;4998078;28;20543;-69
2023/03/28 02:25:37;;;;;;;15.15;4.45;;;1.50;99.90;;;;;;5006062;28;20520;-68
2023/03/28 02:28:06;;;;;;;16.02;2.60;;;1.60;99.90;;;;;;5009125;28;20437;-68
2023/03/28 02:30:33;;;;;;;13.75;2.50;;;1.50;99.90;;;;;;4994679;28;20730;-69
2023/03/28 02:33:00;;;;;;;12.68;3.30;;;1.50;99.90;;;;;;4994743;28;20430;-68
2023/03/28 02:35:36;;;;;;;14.30;3.03;;;1.40;99.90;;;;;;4993777;28;20456;-69
2023/03/28 02:38:14;;;;;;;14.63;3.33;;;1.40;99.90;;;;;;5009418;28;20515;-68
2023/03/28 02:41:09;;;;;;;12.90;2.50;;;1.40;99.90;;;;;;5004782;28;20913;-69
2023/03/28 02:44:10;;;;;;;14.25;3.15;;;1.40;99.90;;;;;;4993332;28;20423;-69
2023/03/28 02:47:03;;;;;;;14.18;2.58;;;1.30;99.90;;;;;;4971148;28;20452;-70
2023/03/28 02:49:53;;;;;;;16.13;2.85;;;1.30;99.90;;;;;;5006927;28;20440;-68
2023/03/28 02:52:39;;;;;;;15.07;3.42;;;1.20;99.90;;;;;;5009068;28;20428;-68
2023/03/28 02:55:04;;;;;;;11.93;1.77;;;1.20;99.90;;;;;;5009416;28;20819;-69
2023/03/28 02:57:35;;;;;;;13.40;2.57;;;1.20;99.90;;;;;;5007814;28;20433;-68
2023/03/28 03:00:11;;;;;;;13.90;3.05;;;1.10;99.90;;;;;;4990930;28;20485;-70
2023/03/28 03:02:39;;;;;;;12.25;2.70;;;1.20;99.90;;;;;;4989929;28;20422;-68
2023/03/28 03:05:05;;;;;;;17.63;2.67;;;1.10;99.90;;;;;;5007071;28;20437;-69
2023/03/28 03:07:31;;;;;;;12.65;2.08;;;1.20;99.90;;;;;;5006948;28;20468;-67
2023/03/28 03:09:57;;;;;;;11.97;3.10;;;1.10;99.90;;;;;;5001927;28;20458;-69
2023/03/28 03:12:23;;;;;;;18.03;3.23;;;1.10;99.90;;;;;;4989094;28;20433;-68
2023/03/28 03:14:49;;;;;;;12.85;3.22;;;1.10;99.90;;;;;;5001577;28;20421;-70
2023/03/28 03:17:19;;;;;;;10.90;2.60;;;1.20;99.90;;;;;;5001011;28;20437;-68
2023/03/28 03:19:45;;;;;;;9.70;1.73;;;1.10;99.90;;;;;;4990254;28;20485;-68
2023/03/28 03:22:11;;;;;;;15.40;3.42;;;1.10;99.90;;;;;;4989016;28;20940;-68
2023/03/28 03:24:36;;;;;;;13.70;3.25;;;1.00;99.90;;;;;;4988237;28;20437;-69
2023/03/28 03:27:03;;;;;;;13.90;3.20;;;1.10;99.90;;;;;;4999036;28;21112;-69
2023/03/28 03:29:28;;;;;;;13.05;3.25;;;1.00;99.90;;;;;;5009047;28;20471;-69
2023/03/28 03:31:54;;;;;;;15.02;3.35;;;1.00;99.90;;;;;;4997752;28;20912;-68
2023/03/28 03:34:20;;;;;;;16.90;3.80;;;1.00;99.90;;;;;;4989915;28;20426;-68
2023/03/28 03:36:46;;;;;;;19.92;3.72;;;1.10;99.90;;;;;;4990768;28;20919;-68
2023/03/28 03:39:12;;;;;;;20.73;3.58;;;1.20;99.90;;;;;;5009205;28;20555;-67
2023/03/28 03:41:37;;;;;;;15.63;2.95;;;1.20;99.90;;;;;;5002416;28;20454;-69
2023/03/28 03:44:03;;;;;;;20.43;5.07;;;1.20;99.90;;;;;;4995515;28;20929;-68
2023/03/28 03:46:29;;;;;;;13.25;3.88;;;1.20;99.90;;;;;;5002868;28;20433;-67
2023/03/28 03:48:55;;;;;;;14.18;3.15;;;1.10;99.90;;;;;;4987226;28;20929;-69
2023/03/28 03:51:21;;;;;;;19.33;2.60;;;1.10;99.90;;;;;;4991398;28;20467;-68
2023/03/28 03:53:49;;;;;;;14.68;2.60;;;1.00;99.90;;;;;;4990901;28;20966;-68
2023/03/28 03:56:15;;;;;;;11.32;2.38;;;0.90;99.90;;;;;;5003000;28;20475;-69
2023/03/28 03:58:41;;;;;;;11.30;2.35;;;1.00;99.90;;;;;;5001591;28;20546;-68
2023/03/28 04:01:12;;;;;;;16.27;3.88;;;1.00;99.90;;;;;;5006911;28;20531;-68
2023/03/28 04:03:39;;;;;;;14.73;2.13;;;1.00;99.90;;;;;;4988546;28;20447;-69
2023/03/28 04:06:05;;;;;;;14.97;3.60;;;1.00;99.90;;;;;;4986662;28;20427;-70
2023/03/28 04:08:31;;;;;;;14.35;3.10;;;0.90;99.90;;;;;;5001229;28;20430;-68
2023/03/28 04:10:57;;;;;;;12.03;2.50;;;0.80;99.90;;;;;;4989234;28;20606;-68
2023/03/28 04:13:22;;;;;;;14.23;3.37;;;1.00;99.90;;;;;;4988301;28;20423;-70
2023/03/28 04:15:48;;;;;;;16.27;3.10;;;0.90;99.90;;;;;;4988179;28;20414;-68
2023/03/28 04:18:16;;;;;;;16.70;4.43;;;0.80;99.90;;;;;;4999011;28;20443;-69
2023/03/28 04:20:45;;;;;;;13.60;2.47;;;0.90;99.90;;;;;;5007912;28;20409;-69
2023/03/28 04:23:11;;;;;;;17.58;3.50;;;0.90;99.90;;;;;;4992621;28;20479;-68
2023/03/28 04:25:40;;;;;;;16.65;3.28;;;0.90;99.90;;;;;;4988525;28;20420;-69
2023/03/28 04:28:08;;;;;;;14.90;2.47;;;1.00;99.90;;;;;;4986988;28;20462;-71
2023/03/28 04:30:34;;;;;;;24.98;11.27;;;1.00;99.90;;;;;;4987796;28;20460;-69
2023/03/28 04:33:00;;;;;;;18.88;6.38;;;1.00;99.90;;;;;;5001383;28;20454;-68
2023/03/28 04:35:28;;;;;;;12.20;3.47;;;1.20;99.90;;;;;;4988254;28;20453;-68
2023/03/28 04:37:56;;;;;;;10.55;2.47;;;1.10;99.90;;;;;;4997973;28;20979;-68
2023/03/28 04:40:23;;;;;;;10.40;1.83;;;1.20;99.90;;;;;;5008147;28;20405;-69
2023/03/28 04:42:49;;;;;;;8.00;2.20;;;1.20;99.90;;;;;;5004943;28;20424;-69
2023/03/28 04:45:15;;;;;;;14.82;3.17;;;1.30;99.90;;;;;;4994327;28;20436;-68
2023/03/28 04:47:41;;;;;;;14.52;3.63;;;1.30;99.90;;;;;;4994780;28;20438;-68
2023/03/28 04:50:08;;;;;;;10.27;2.15;;;1.40;99.90;;;;;;4988045;28;20406;-69
2023/03/28 04:52:34;;;;;;;10.50;2.72;;;1.20;99.90;;;;;;4988667;28;20432;-69
2023/03/28 04:55:00;;;;;;;15.57;2.47;;;1.40;99.90;;;;;;4999499;28;20447;-68
2023/03/28 04:57:26;;;;;;;13.65;2.90;;;1.40;99.90;;;;;;5005212;28;20916;-69
2023/03/28 04:59:52;;;;;;;10.73;2.83;;;1.50;99.90;;;;;;5002800;28;20913;-69
2023/03/28 05:02:17;;;;;;;12.55;3.35;;;1.60;99.90;;;;;;5005954;28;20449;-71
2023/03/28 05:04:43;;;;;;;15.53;3.47;;;1.60;99.90;;;;;;4991401;28;20939;-69
2023/03/28 05:07:09;;;;;;;11.10;2.97;;;1.60;99.90;;;;;;5008806;28;20438;-68
2023/03/28 05:09:35;;;;;;;11.57;2.42;;;1.70;99.90;;;;;;5007966;28;20417;-69
2023/03/28 05:12:01;;;;;;;10.68;3.13;;;1.60;99.90;;;;;;5003281;28;20426;-67
2023/03/28 05:14:26;;;;;;;13.30;2.80;;;1.70;99.90;;;;;;5007876;28;20967;-69
2023/03/28 05:16:52;;;;;;;9.10;2.53;;;1.70;99.90;;;;;;5004326;28;20450;-70
2023/03/28 05:19:19;;;;;;;9.97;2.43;;;1.80;99.90;;;;;;5006533;28;20523;-69
2023/03/28 05:21:45;;;;;;;12.40;2.60;;;1.90;99.90;;;;;;5011357;28;20423;-68
2023/03/28 05:24:11;;;;;;;14.32;2.80;;;1.80;99.90;;;;;;5010434;28;20519;-68
2023/03/28 05:26:36;;;;;;;12.43;2.57;;;1.80;99.90;;;;;;5007967;28;20428;-68
2023/03/28 05:29:03;;;;;;;15.57;3.60;;;1.80;99.90;;;;;;4995217;28;20418;-67
2023/03/28 05:31:29;;;;;;;14.27;2.30;;;1.70;99.90;;;;;;4991332;28;20429;-69
2023/03/28 05:33:56;;;;;;;12.75;2.67;;;1.80;99.90;;;;;;4995811;28;20894;-68
2023/03/28 05:36:22;;;;;;;13.90;2.72;;;1.60;99.90;;;;;;4991021;28;20410;-69
2023/03/28 05:38:48;;;;;;;10.50;2.17;;;1.60;99.90;;;;;;5001049;28;20474;-69
2023/03/28 05:41:14;;;;;;;11.52;1.88;;;1.60;99.90;;;;;;4974631;28;20414;-69
2023/03/28 05:43:40;;;;;;;12.20;2.00;;;1.60;99.90;;;;;;5001560;28;20579;-70
2023/03/28 05:46:06;;;;;;;12.57;2.42;;;1.60;99.90;;;;;;4991968;28;20409;-70
2023/03/28 05:48:32;;;;;;;12.65;2.75;;;1.60;99.90;;;;;;4999643;28;20425;-69
2023/03/28 05:50:57;;;;;;;15.33;3.17;;;1.50;99.90;;;;;;5008876;28;20439;-68
2023/03/28 05:53:23;;;;;;;15.93;3.33;;;1.50;99.90;;;;;;4995612;28;20566;-69
2023/03/28 05:55:49;;;;;;;13.30;3.08;;;1.40;99.90;;;;;;4999641;28;20931;-68
2023/03/28 05:58:16;;;;;;;13.48;2.58;;;1.40;99.90;;;;;;4989713;28;20475;-69
2023/03/28 06:00:43;;;;;;;19.48;3.45;;;1.40;99.90;;;;;;5008527;28;20432;-70
2023/03/28 06:03:09;;;;;;;11.18;2.40;;;1.50;99.90;;;;;;5005807;28;20782;-69
2023/03/28 06:05:36;;;;;;;10.60;3.03;;;1.50;99.90;;;;;;5008167;28;20424;-69
2023/03/28 06:08:02;;;;;;;11.93;2.55;;;1.60;99.90;;;;;;5002088;28;20502;-71
2023/03/28 06:10:28;;;;;;;10.75;1.98;;;1.70;99.90;;;;;;4990057;28;20506;-70
2023/03/28 06:12:53;;;;;;;10.43;3.22;;;1.70;99.90;;;;;;4988735;28;20528;-69
2023/03/28 06:15:19;;;;;;;13.27;2.92;;;1.90;99.90;;;;;;4998046;28;20442;-69
2023/03/28 06:17:45;;;;;;;15.38;3.42;;;2.00;99.90;;;;;;5004134;28;20440;-69
2023/03/28 06:20:11;;;;;;;13.70;2.77;;;2.30;99.90;;;;;;4990735;28;20505;-69
2023/03/28 06:22:37;;;;;;;11.53;2.50;;;2.50;99.90;;;;;;4991719;28;20428;-71
2023/03/28 06:25:05;;;;;;;13.63;3.95;;;2.60;99.90;;;;;;5001355;28;20936;-69
2023/03/28 06:27:31;;;;;;;11.98;3.40;;;2.70;99.90;;;;;;4994536;28;20435;-70
2023/03/28 06:29:58;;;;;;;12.43;2.60;;;2.80;99.90;;;;;;5008214;28;20413;-70
2023/03/28 06:32:25;;;;;;;8.85;2.30;;;3.00;99.90;;;;;;5004938;28;20437;-69
2023/03/28 06:34:50;;;;;;;14.00;3.22;;;3.10;99.90;;;;;;4999350;28;20508;-70
2023/03/28 06:37:16;;;;;;;10.38;2.75;;;3.20;99.90;;;;;;5004955;28;20438;-69
2023/03/28 06:39:42;;;;;;;10.57;3.33;;;3.30;99.90;;;;;;5007915;28;20424;-68
2023/03/28 06:42:07;;;;;;;13.20;2.85;;;3.30;99.90;;;;;;5007144;28;20432;-69
2023/03/28 06:44:33;;;;;;;12.07;2.67;;;3.40;99.90;;;;;;5002485;28;20429;-69
2023/03/28 06:46:59;;;;;;;11.07;3.47;;;3.40;99.90;;;;;;5007578;28;20417;-68
2023/03/28 06:49:25;;;;;;;12.50;3.37;;;3.50;99.90;;;;;;5006098;28;20490;-70
2023/03/28 06:51:51;;;;;;;12.60;2.33;;;3.60;99.90;;;;;;5007657;28;20436;-70
2023/03/28 06:54:17;;;;;;;7.17;1.90;;;4.10;99.90;;;;;;5001463;28;20421;-68
2023/03/28 06:56:43;;;;;;;11.70;2.50;;;3.90;99.90;;;;;;5008484;28;20955;-67
2023/03/28 06:59:09;;;;;;;14.50;3.92;;;4.00;99.90;;;;;;4997468;28;20932;-68
2023/03/28 07:01:34;;;;;;;9.52;2.25;;;4.00;99.90;;;;;;5006237;28;20946;-68
2023/03/28 07:04:01;;;;;;;10.90;2.33;;;4.10;99.90;;;;;;5008113;28;20424;-67
2023/03/28 07:06:27;;;;;;;13.52;2.92;;;4.60;99.90;;;;;;5005933;28;20447;-67
2023/03/28 07:08:55;;;;;;;7.25;1.95;;;4.40;99.90;;;;;;4996381;28;20433;-68
2023/03/28 07:11:21;;;;;;;10.30;2.00;;;4.60;99.90;;;;;;4970744;28;20557;-67
2023/03/28 07:13:47;;;;;;;8.30;1.23;;;4.50;99.90;;;;;;4987128;28;20505;-68
2023/03/28 07:16:14;;;;;;;14.40;2.63;;;4.70;99.90;;;;;;4997732;28;20520;-68
2023/03/28 07:18:40;;;;;;;10.93;2.67;;;4.90;99.90;;;;;;5004496;28;20435;-69
2023/03/28 07:21:14;;;;;;;9.70;2.20;;;5.00;99.90;;;;;;5005056;28;20436;-69
2023/03/28 07:23:40;;;;;;;12.88;2.47;;;5.00;99.90;;;;;;5006364;28;20452;-68
2023/03/28 07:26:07;;;;;;;11.25;2.58;;;5.00;99.90;;;;;;5007056;28;20424;-72
2023/03/28 07:28:34;;;;;;;8.57;2.00;;;5.10;99.90;;;;;;4994735;28;20418;-69
2023/03/28 07:31:01;;;;;;;10.63;1.92;;;5.00;99.90;;;;;;4992800;28;20551;-68
2023/03/28 07:33:27;;;;;;;8.73;2.20;;;5.20;99.90;;;;;;4988819;28;20819;-69
2023/03/28 07:35:53;;;;;;;9.00;2.25;;;5.30;99.90;;;;;;4988559;28;20438;-68
2023/03/28 07:38:18;;;;;;;7.05;1.70;;;5.30;99.90;;;;;;5003695;28;20440;-68
2023/03/28 07:40:44;;;;;;;7.27;2.23;;;5.30;99.90;;;;;;5004788;28;20423;-69
2023/03/28 07:43:10;;;;;;;8.83;1.87;;;5.50;99.90;;;;;;4999570;28;20426;-68
2023/03/28 07:45:36;;;;;;;6.97;1.70;;;5.30;99.90;;;;;;4986856;28;20484;-73
2023/03/28 07:48:02;;;;;;;8.57;1.77;;;5.40;99.90;;;;;;4991386;28;20479;-68
2023/03/28 07:50:28;;;;;;;8.63;1.97;;;5.30;99.90;;;;;;5005383;28;20930;-68
2023/03/28 07:52:56;;;;;;;7.80;2.25;;;5.50;99.90;;;;;;5005930;28;20430;-67
2023/03/28 07:55:26;;;;;;;10.27;2.22;;;5.50;99.90;;;;;;5006325;28;20433;-68
2023/03/28 07:57:52;;;;;;;9.25;2.60;;;5.70;99.90;;;;;;5004299;28;20436;-68
2023/03/28 08:00:21;;;;;;;9.45;2.28;;;5.70;99.90;;;;;;5007359;28;20436;-68
2023/03/28 08:02:47;;;;;;;7.18;1.88;;;5.80;99.90;;;;;;5007110;28;20512;-68
2023/03/28 08:05:13;;;;;;;5.38;1.90;;;5.80;99.90;;;;;;5007040;28;20500;-69
2023/03/28 08:07:40;;;;;;;10.10;2.03;;;5.80;99.90;;;;;;4995318;28;20435;-69
2023/03/28 08:10:08;;;;;;;9.75;2.63;;;5.70;99.90;;;;;;5007305;28;20419;-69
2023/03/28 08:12:33;;;;;;;7.05;2.03;;;5.90;99.90;;;;;;4988879;28;20862;-68
2023/03/28 08:14:59;;;;;;;8.23;1.65;;;6.00;99.90;;;;;;4989055;28;20454;-68
2023/03/28 08:17:25;;;;;;;6.55;1.25;;;6.20;99.90;;;;;;4993157;28;20912;-68
2023/03/28 08:19:52;;;;;;;3.28;1.20;;;6.20;99.90;;;;;;5004330;28;20734;-69
2023/03/28 08:22:17;;;;;;;5.07;1.20;;;6.30;99.90;;;;;;5002551;28;20483;-66
2023/03/28 08:24:43;;;;;;;3.72;1.58;;;6.40;99.90;;;;;;5004951;28;20779;-67
2023/03/28 08:27:09;;;;;;;6.88;2.10;;;6.50;99.90;;;;;;4996328;28;21253;-67
2023/03/28 08:29:35;;;;;;;7.33;1.40;;;6.50;99.90;;;;;;5004437;28;20404;-65
2023/03/28 08:32:02;;;;;;;3.50;0.83;;;6.50;99.90;;;;;;4995117;28;20439;-67
2023/03/28 08:34:28;;;;;;;6.60;1.25;;;6.40;99.90;;;;;;4986051;28;20497;-67
2023/03/28 08:36:54;;;;;;;8.10;1.90;;;6.30;99.90;;;;;;4989170;28;20521;-67
2023/03/28 08:39:19;;;;;;;5.93;1.40;;;6.50;99.90;;;;;;5001223;28;20465;-68
2023/03/28 08:41:45;;;;;;;4.23;1.27;;;6.60;99.90;;;;;;5002843;28;20580;-68
2023/03/28 08:44:23;;;;;;;4.93;1.33;;;6.40;99.90;;;;;;4992009;28;20450;-66
2023/03/28 08:46:55;;;;;;;3.30;0.80;;;6.40;99.90;;;;;;4992105;28;20509;-68
2023/03/28 08:49:21;;;;;;;4.22;1.60;;;6.30;99.90;;;;;;4969423;28;20521;-68
2023/03/28 08:51:57;;;;;;;3.40;0.67;;;6.20;99.90;;;;;;4999640;28;20536;-69
2023/03/28 08:54:30;;;;;;;6.43;1.40;;;6.10;99.90;;;;;;4988774;28;20469;-69
2023/03/28 08:56:58;;;;;;;4.47;0.70;;;6.40;99.90;;;;;;4994697;28;20442;-66
2023/03/28 08:59:42;;;;;;;4.43;1.02;;;6.40;99.90;;;;;;5009861;28;20435;-70
2023/03/28 09:02:27;;;;;;;6.07;1.10;;;6.40;99.90;;;;;;4995306;28;20765;-69
2023/03/28 09:04:56;;;;;;;3.47;0.80;;;6.50;99.90;;;;;;5014870;28;20419;-68
2023/03/28 09:07:41;;;;;;;4.50;0.80;;;6.80;99.90;;;;;;5003239;28;20421;-68
2023/03/28 09:10:32;;;;;;;5.60;1.65;;;7.10;99.90;;;;;;4973493;28;20469;-69
2023/03/28 09:13:40;;;;;;;4.60;1.13;;;7.00;99.90;;;;;;5001089;28;20432;-69
2023/03/28 09:16:47;;;;;;;6.35;1.75;;;7.10;99.90;;;;;;4986206;28;20532;-70
2023/03/28 09:19:35;;;;;;;3.75;1.10;;;7.50;99.90;;;;;;4973037;28;20453;-68
2023/03/28 09:22:26;;;;;;;4.03;1.10;;;7.80;99.90;;;;;;5019735;28;20419;-69
2023/03/28 09:25:28;;;;;;;6.00;1.25;;;7.80;99.90;;;;;;5014501;28;20403;-68
2023/03/28 09:28:03;;;;;;;4.63;1.20;;;8.20;99.90;;;;;;5020367;28;20422;-69
2023/03/28 09:30:33;;;;;;;2.95;0.55;;;8.40;99.90;;;;;;4995515;28;20786;-69
2023/03/28 09:33:04;;;;;;;5.22;1.02;;;8.40;99.90;;;;;;5017705;28;20539;-67
2023/03/28 09:35:31;;;;;;;5.70;1.10;;;8.30;99.90;;;;;;4994482;28;20415;-69
2023/03/28 09:38:20;;;;;;;3.40;0.70;;;8.10;99.90;;;;;;5005008;28;20437;-68
2023/03/28 09:40:48;;;;;;;3.50;0.98;;;7.80;99.90;;;;;;4978041;28;20436;-67
2023/03/28 09:43:39;;;;;;;4.85;0.90;;;7.80;99.90;;;;;;5011532;28;20506;-68
2023/03/28 09:46:08;;;;;;;5.00;0.90;;;8.10;99.90;;;;;;4988873;28;20449;-68
2023/03/28 09:48:38;;;;;;;4.45;0.90;;;8.00;99.90;;;;;;5018398;28;20848;-67
2023/03/28 09:51:06;;;;;;;8.10;2.10;;;8.00;99.90;;;;;;5019365;28;20511;-68
2023/03/28 09:53:35;;;;;;;4.68;1.98;;;7.90;99.90;;;;;;5002376;28;20415;-67
2023/03/28 09:56:19;;;;;;;4.45;1.45;;;8.00;99.90;;;;;;5010574;28;20432;-71
2023/03/28 09:58:53;;;;;;;6.47;1.33;;;8.20;99.90;;;;;;5021012;28;20509;-67
2023/03/28 10:01:36;;;;;;;5.20;2.10;;;8.20;99.90;;;;;;4982971;28;20820;-68
2023/03/28 10:04:12;;;;;;;5.78;1.75;;;8.10;99.90;;;;;;5007911;28;21092;-68
2023/03/28 10:06:39;;;;;;;4.35;2.17;;;8.10;99.90;;;;;;4999574;28;20915;-67
2023/03/28 10:09:14;;;;;;;9.20;2.13;;;8.50;99.90;;;;;;5009179;28;20428;-67
2023/03/28 10:11:59;;;;;;;5.45;1.63;;;8.70;99.90;;;;;;5012063;28;20434;-68
2023/03/28 10:14:36;;;;;;;4.17;1.50;;;8.90;99.90;;;;;;4996134;28;20422;-67
2023/03/28 10:17:06;;;;;;;6.22;2.03;;;8.90;99.90;;;;;;5004172;28;20540;-67
2023/03/28 10:19:34;;;;;;;7.45;1.90;;;9.00;99.90;;;;;;5019267;28;20797;-67
2023/03/28 10:22:15;;;;;;;7.75;2.17;;;8.80;99.90;;;;;;5012787;28;20741;-67
2023/03/28 10:24:44;;;;;;;8.70;2.10;;;8.90;99.90;;;;;;4991319;28;20915;-67
2023/03/28 10:27:31;;;;;;;6.97;3.63;;;8.80;99.90;;;;;;5010552;28;20420;-67
2023/03/28 10:30:06;;;;;;;6.40;2.00;;;9.00;99.90;;;;;;5025125;28;20465;-67
2023/03/28 10:32:32;;;;;;;5.75;2.20;;;8.80;99.90;;;;;;5014091;28;21204;-67
2023/03/28 10:35:22;;;;;;;7.82;3.00;;;8.70;99.90;;;;;;5019700;28;20417;-67
2023/03/28 10:37:53;;;;;;;7.10;2.17;;;8.50;99.90;;;;;;4999638;28;20531;-67
2023/03/28 10:40:19;;;;;;;4.75;1.60;;;8.90;99.90;;;;;;5000316;28;20931;-67
2023/03/28 10:42:48;;;;;;;7.20;2.30;;;8.60;99.90;;;;;;5009716;28;20481;-67
2023/03/28 10:45:41;;;;;;;5.72;2.03;;;8.60;99.90;;;;;;5023108;28;20490;-68
2023/03/28 10:48:19;;;;;;;6.80;1.90;;;8.80;99.90;;;;;;5009049;28;20433;-69
2023/03/28 10:50:48;;;;;;;7.85;2.45;;;8.60;99.90;;;;;;4994028;28;20434;-69
2023/03/28 10:53:31;;;;;;;5.97;2.10;;;8.50;99.90;;;;;;4990841;28;20572;-67
2023/03/28 10:56:23;;;;;;;9.55;2.45;;;8.70;99.90;;;;;;5012405;28;20426;-67
2023/03/28 10:59:30;;;;;;;5.55;1.70;;;8.50;99.90;;;;;;4993193;28;20488;-67
2023/03/28 11:02:30;;;;;;;8.52;2.28;;;8.90;99.90;;;;;;4986963;28;20523;-67
2023/03/28 11:05:24;;;;;;;6.43;2.53;;;9.10;99.90;;;;;;4998904;28;20857;-66
2023/03/28 11:08:21;;;;;;;6.07;2.30;;;9.20;99.90;;;;;;4998589;28;20469;-67
2023/03/28 11:11:09;;;;;;;5.95;2.25;;;9.10;99.90;;;;;;4995885;28;20440;-68
2023/03/28 11:14:27;;;;;;;5.73;2.27;;;8.80;99.90;;;;;;4984449;28;20876;-67
2023/03/28 11:17:13;;;;;;;5.65;1.98;;;8.50;99.90;;;;;;4993943;28;20495;-67
2023/03/28 11:19:59;;;;;;;5.68;1.65;;;8.70;99.90;;;;;;5006383;28;20424;-67
2023/03/28 11:22:37;;;;;;;6.30;2.47;;;8.60;99.90;;;;;;4991214;28;21041;-66
2023/03/28 11:25:40;;;;;;;8.27;1.80;;;8.90;99.90;;;;;;5003252;28;20508;-67
2023/03/28 11:28:20;;;;;;;6.95;2.58;;;9.00;99.90;;;;;;4982125;28;20455;-71
2023/03/28 11:30:51;;;;;;;5.70;1.98;;;8.90;99.90;;;;;;5010097;28;20405;-68
2023/03/28 11:33:25;;;;;;;4.72;1.98;;;9.10;99.90;;;;;;5028033;28;20976;-67
2023/03/28 11:36:16;;;;;;;6.13;2.67;;;9.30;99.90;;;;;;5006374;28;20769;-69
2023/03/28 11:38:50;;;;;;;8.70;2.10;;;9.20;99.90;;;;;;4988156;28;20473;-69
2023/03/28 11:41:21;;;;;;;8.35;2.65;;;9.10;99.90;;;;;;4988987;28;20512;-69
2023/03/28 11:44:02;;;;;;;7.03;2.13;;;9.10;99.90;;;;;;4997927;28;20944;-69
2023/03/28 11:46:36;;;;;;;5.30;2.33;;;9.30;99.90;;;;;;4997431;28;20440;-68
2023/03/28 11:49:17;;;;;;;6.43;2.40;;;9.10;99.90;;;;;;4981811;28;20436;-69
2023/03/28 11:51:58;;;;;;;5.00;2.22;;;9.00;99.90;;;;;;4976632;28;20467;-68
2023/03/28 11:54:52;;;;;;;7.18;2.50;;;9.00;99.90;;;;;;5005278;28;20994;-68
2023/03/28 11:58:15;;;;;;;5.07;2.10;;;8.90;99.90;;;;;;4978903;28;20516;-69
2023/03/28 12:00:41;;;;;;;9.20;2.53;;;9.30;99.90;;;;;;4949495;28;20447;-69
2023/03/28 12:03:24;;;;;;;9.07;2.90;;;9.50;99.90;;;;;;4948929;28;20894;-68
2023/03/28 12:05:56;;;;;;;7.72;2.65;;;9.50;99.90;;;;;;4977045;28;20469;-68
2023/03/28 12:08:31;;;;;;;7.95;3.60;;;9.70;99.90;;;;;;4989156;28;20418;-68
2023/03/28 12:11:09;;;;;;;7.00;2.33;;;9.90;99.90;;;;;;5002748;28;20426;-68
2023/03/28 12:13:53;;;;;;;8.02;3.15;;;9.70;99.90;;;;;;4986938;28;20905;-69
2023/03/28 12:16:30;;;;;;;5.23;2.53;;;9.50;99.90;;;;;;4985911;28;20418;-68
2023/03/28 12:19:02;;;;;;;6.05;2.92;;;9.20;99.90;;;;;;4986250;28;20879;-67
2023/03/28 12:21:42;;;;;;;6.60;2.63;;;9.50;99.90;;;;;;4987389;28;20480;-69
2023/03/28 12:24:34;;;;;;;5.72;2.35;;;9.40;99.90;;;;;;4986501;28;20433;-68
2023/03/28 12:27:17;;;;;;;4.75;2.22;;;9.30;99.90;;;;;;4998664;28;20448;-68
2023/03/28 12:29:55;;;;;;;6.63;2.88;;;9.20;99.90;;;;;;4986239;28;20445;-68
2023/03/28 12:32:30;;;;;;;5.28;1.95;;;9.80;99.90;;;;;;4986365;28;20419;-68
2023/03/28 12:35:28;;;;;;;6.05;2.30;;;9.70;99.90;;;;;;4986949;28;20425;-68
2023/03/28 12:38:13;;;;;;;6.88;2.90;;;9.50;99.90;;;;;;5001207;28;20448;-67
2023/03/28 12:41:15;;;;;;;5.90;2.08;;;9.10;99.90;;;;;;5005166;28;20401;-67
2023/03/28 12:43:57;;;;;;;6.10;2.50;;;9.60;99.90;;;;;;4973194;28;20438;-67
2023/03/28 12:47:12;;;;;;;9.68;3.58;;;9.40;99.90;;;;;;4986000;28;20426;-68
2023/03/28 12:49:48;;;;;;;9.27;3.30;;;9.30;99.90;;;;;;4980646;28;20443;-68
2023/03/28 12:52:22;;;;;;;4.05;2.20;;;9.50;99.90;;;;;;5005577;28;20461;-69
2023/03/28 12:54:59;;;;;;;7.27;2.87;;;9.60;99.90;;;;;;5018089;28;20761;-68
2023/03/28 12:57:44;;;;;;;6.40;2.50;;;9.40;99.90;;;;;;5000174;28;20779;-68
2023/03/28 13:00:18;;;;;;;6.22;2.28;;;9.20;99.90;;;;;;5001935;28;20772;-68
2023/03/28 13:02:49;;;;;;;6.47;2.58;;;9.30;99.90;;;;;;5005252;28;20431;-69
2023/03/28 13:05:44;;;;;;;7.72;3.10;;;9.20;99.90;;;;;;4972211;28;20429;-68
2023/03/28 13:08:25;;;;;;;6.20;2.72;;;9.00;99.90;;;;;;5000592;28;20428;-67
2023/03/28 13:10:54;;;;;;;4.45;2.45;;;9.30;99.90;;;;;;5006796;28;20455;-68
2023/03/28 13:14:00;;;;;;;6.78;2.47;;;9.30;99.90;;;;;;4997124;28;20451;-68
2023/03/28 13:16:57;;;;;;;6.85;2.40;;;9.20;99.90;;;;;;4980088;28;20422;-68
2023/03/28 13:19:41;;;;;;;7.22;2.38;;;9.30;99.90;;;;;;5002213;28;20494;-68
2023/03/28 13:22:27;;;;;;;6.10;3.08;;;9.20;99.90;;;;;;5013841;28;20427;-68